sensor_id;sensor_type;location;lat;lon;timestamp;temperature;humidity
7234;DHT22;3658;47.992;10.158;2022-11-20T00:00:39;20.50;46.60
7234;DHT22;3658;47.992;10.158;2022-11-20T00:03:06;20.50;46.60
7234;DHT22;3658;47.992;10.158;2022-11-20T00:05:33;20.50;46.60
7234;DHT22;3658;47.992;10.158;2022-11-20T00:08:00;20.50;46.50
7234;DHT22;3658;47.992;10.158;2022-11-20T00:10:27;20.50;46.50
7234;DHT22;3658;47.992;10.158;2022-11-20T00:12:55;20.50;46.60
7234;DHT22;3658;47.992;10.158;2022-11-20T00:15:24;20.50;46.50
7234;DHT22;3658;47.992;10.158;2022-11-20T00:17:51;20.50;46.50
7234;DHT22;3658;47.992;10.158;2022-11-20T00:20:18;20.50;46.60
7234;DHT22;3658;47.992;10.158;2022-11-20T00:22:44;20.40;46.50
7234;DHT22;3658;47.992;10.158;2022-11-20T00:25:11;20.50;46.60
7234;DHT22;3658;47.992;10.158;2022-11-20T00:27:38;20.40;46.50
7234;DHT22;3658;47.992;10.158;2022-11-20T00:30:08;20.40;46.50
7234;DHT22;3658;47.992;10.158;2022-11-20T00:32:35;20.40;46.50
7234;DHT22;3658;47.992;10.158;2022-11-20T00:35:02;20.40;46.50
7234;DHT22;3658;47.992;10.158;2022-11-20T00:37:29;20.40;46.50
7234;DHT22;3658;47.992;10.158;2022-11-20T00:39:56;20.40;46.50
7234;DHT22;3658;47.992;10.158;2022-11-20T00:42:23;20.40;46.50
7234;DHT22;3658;47.992;10.158;2022-11-20T00:44:50;20.40;46.50
7234;DHT22;3658;47.992;10.158;2022-11-20T00:47:18;20.40;46.50
7234;DHT22;3658;47.992;10.158;2022-11-20T00:49:45;20.40;46.50
7234;DHT22;3658;47.992;10.158;2022-11-20T00:52:12;20.40;46.50
7234;DHT22;3658;47.992;10.158;2022-11-20T00:54:39;20.40;46.50
7234;DHT22;3658;47.992;10.158;2022-11-20T00:57:06;20.40;46.50
7234;DHT22;3658;47.992;10.158;2022-11-20T00:59:33;20.40;46.50
7234;DHT22;3658;47.992;10.158;2022-11-20T01:02:00;20.40;46.50
7234;DHT22;3658;47.992;10.158;2022-11-20T01:04:28;20.40;46.50
7234;DHT22;3658;47.992;10.158;2022-11-20T01:06:55;20.30;46.40
7234;DHT22;3658;47.992;10.158;2022-11-20T01:09:22;20.30;46.40
7234;DHT22;3658;47.992;10.158;2022-11-20T01:11:49;20.30;46.40
7234;DHT22;3658;47.992;10.158;2022-11-20T01:14:18;20.30;46.40
7234;DHT22;3658;47.992;10.158;2022-11-20T01:16:47;20.30;46.30
7234;DHT22;3658;47.992;10.158;2022-11-20T01:19:18;20.30;46.30
7234;DHT22;3658;47.992;10.158;2022-11-20T01:21:49;20.30;46.30
7234;DHT22;3658;47.992;10.158;2022-11-20T01:24:18;20.30;46.40
7234;DHT22;3658;47.992;10.158;2022-11-20T01:26:48;20.30;46.30
7234;DHT22;3658;47.992;10.158;2022-11-20T01:29:18;20.30;46.30
7234;DHT22;3658;47.992;10.158;2022-11-20T01:31:45;20.30;46.40
7234;DHT22;3658;47.992;10.158;2022-11-20T01:34:13;20.30;46.30
7234;DHT22;3658;47.992;10.158;2022-11-20T01:36:42;20.30;46.30
7234;DHT22;3658;47.992;10.158;2022-11-20T01:39:13;20.30;46.30
7234;DHT22;3658;47.992;10.158;2022-11-20T01:41:41;20.30;46.30
7234;DHT22;3658;47.992;10.158;2022-11-20T01:44:47;20.30;46.90
7234;DHT22;3658;47.992;10.158;2022-11-20T01:47:17;20.30;46.30
7234;DHT22;3658;47.992;10.158;2022-11-20T01:49:50;20.30;46.30
7234;DHT22;3658;47.992;10.158;2022-11-20T01:52:20;20.30;46.30
7234;DHT22;3658;47.992;10.158;2022-11-20T01:54:51;20.20;46.20
7234;DHT22;3658;47.992;10.158;2022-11-20T01:57:20;20.20;46.20
7234;DHT22;3658;47.992;10.158;2022-11-20T01:59:53;20.20;46.20
7234;DHT22;3658;47.992;10.158;2022-11-20T02:02:23;20.20;46.20
7234;DHT22;3658;47.992;10.158;2022-11-20T02:04:52;20.20;46.40
7234;DHT22;3658;47.992;10.158;2022-11-20T02:07:21;20.20;46.20
7234;DHT22;3658;47.992;10.158;2022-11-20T02:09:51;20.20;46.90
7234;DHT22;3658;47.992;10.158;2022-11-20T02:12:18;20.20;46.20
7234;DHT22;3658;47.992;10.158;2022-11-20T02:14:59;20.20;46.20
7234;DHT22;3658;47.992;10.158;2022-11-20T02:17:26;20.20;46.20
7234;DHT22;3658;47.992;10.158;2022-11-20T02:19:53;20.20;46.20
7234;DHT22;3658;47.992;10.158;2022-11-20T02:22:26;20.20;46.20
7234;DHT22;3658;47.992;10.158;2022-11-20T02:24:56;20.20;46.20
7234;DHT22;3658;47.992;10.158;2022-11-20T02:27:24;20.20;46.20
7234;DHT22;3658;47.992;10.158;2022-11-20T02:29:53;20.20;46.20
7234;DHT22;3658;47.992;10.158;2022-11-20T02:32:24;20.20;46.20
7234;DHT22;3658;47.992;10.158;2022-11-20T02:34:52;20.20;46.20
7234;DHT22;3658;47.992;10.158;2022-11-20T02:37:19;20.20;46.20
7234;DHT22;3658;47.992;10.158;2022-11-20T02:39:49;20.20;46.20
7234;DHT22;3658;47.992;10.158;2022-11-20T02:42:19;20.20;46.20
7234;DHT22;3658;47.992;10.158;2022-11-20T02:44:46;20.20;46.20
7234;DHT22;3658;47.992;10.158;2022-11-20T02:47:13;20.20;46.20
7234;DHT22;3658;47.992;10.158;2022-11-20T02:49:40;20.20;46.10
7234;DHT22;3658;47.992;10.158;2022-11-20T02:52:07;20.20;46.10
7234;DHT22;3658;47.992;10.158;2022-11-20T02:54:33;20.20;46.10
7234;DHT22;3658;47.992;10.158;2022-11-20T02:57:00;20.20;46.10
7234;DHT22;3658;47.992;10.158;2022-11-20T02:59:29;20.20;46.10
7234;DHT22;3658;47.992;10.158;2022-11-20T03:01:56;20.10;46.00
7234;DHT22;3658;47.992;10.158;2022-11-20T03:04:23;20.10;46.00
7234;DHT22;3658;47.992;10.158;2022-11-20T03:06:50;20.10;46.00
7234;DHT22;3658;47.992;10.158;2022-11-20T03:09:16;20.20;46.10
7234;DHT22;3658;47.992;10.158;2022-11-20T03:11:43;20.10;46.00
7234;DHT22;3658;47.992;10.158;2022-11-20T03:14:10;20.10;46.00
7234;DHT22;3658;47.992;10.158;2022-11-20T03:16:39;20.10;46.00
7234;DHT22;3658;47.992;10.158;2022-11-20T03:19:05;20.10;46.00
7234;DHT22;3658;47.992;10.158;2022-11-20T03:21:33;20.10;45.90
7234;DHT22;3658;47.992;10.158;2022-11-20T03:24:01;20.10;46.00
7234;DHT22;3658;47.992;10.158;2022-11-20T03:26:28;20.10;46.00
7234;DHT22;3658;47.992;10.158;2022-11-20T03:28:58;20.10;46.00
7234;DHT22;3658;47.992;10.158;2022-11-20T03:31:27;20.10;46.00
7234;DHT22;3658;47.992;10.158;2022-11-20T03:33:56;20.10;46.00
7234;DHT22;3658;47.992;10.158;2022-11-20T03:36:24;20.10;45.90
7234;DHT22;3658;47.992;10.158;2022-11-20T03:38:53;20.10;46.00
7234;DHT22;3658;47.992;10.158;2022-11-20T03:41:22;20.10;46.00
7234;DHT22;3658;47.992;10.158;2022-11-20T03:43:49;20.10;45.90
7234;DHT22;3658;47.992;10.158;2022-11-20T03:46:16;20.10;46.00
7234;DHT22;3658;47.992;10.158;2022-11-20T03:48:43;20.10;45.90
7234;DHT22;3658;47.992;10.158;2022-11-20T03:51:14;20.10;45.90
7234;DHT22;3658;47.992;10.158;2022-11-20T03:53:44;20.10;46.00
7234;DHT22;3658;47.992;10.158;2022-11-20T03:56:13;20.10;45.90
7234;DHT22;3658;47.992;10.158;2022-11-20T03:58:40;20.10;45.90
7234;DHT22;3658;47.992;10.158;2022-11-20T04:01:09;20.00;45.90
7234;DHT22;3658;47.992;10.158;2022-11-20T04:03:37;20.00;45.90
7234;DHT22;3658;47.992;10.158;2022-11-20T04:06:06;20.00;45.90
7234;DHT22;3658;47.992;10.158;2022-11-20T04:08:34;20.00;45.90
7234;DHT22;3658;47.992;10.158;2022-11-20T04:11:12;20.00;45.90
7234;DHT22;3658;47.992;10.158;2022-11-20T04:13:40;20.10;46.00
7234;DHT22;3658;47.992;10.158;2022-11-20T04:16:08;20.00;45.90
7234;DHT22;3658;47.992;10.158;2022-11-20T04:18:35;20.00;45.90
7234;DHT22;3658;47.992;10.158;2022-11-20T04:21:03;20.00;45.90
7234;DHT22;3658;47.992;10.158;2022-11-20T04:23:30;20.00;45.90
7234;DHT22;3658;47.992;10.158;2022-11-20T04:26:03;20.00;45.90
7234;DHT22;3658;47.992;10.158;2022-11-20T04:28:30;20.00;45.90
7234;DHT22;3658;47.992;10.158;2022-11-20T04:31:09;20.00;45.90
7234;DHT22;3658;47.992;10.158;2022-11-20T04:33:36;20.00;45.90
7234;DHT22;3658;47.992;10.158;2022-11-20T04:36:05;20.00;45.90
7234;DHT22;3658;47.992;10.158;2022-11-20T04:38:33;20.00;45.90
7234;DHT22;3658;47.992;10.158;2022-11-20T04:41:03;20.00;45.90
7234;DHT22;3658;47.992;10.158;2022-11-20T04:43:30;20.00;45.90
7234;DHT22;3658;47.992;10.158;2022-11-20T04:45:58;20.00;45.90
7234;DHT22;3658;47.992;10.158;2022-11-20T04:48:26;20.00;45.90
7234;DHT22;3658;47.992;10.158;2022-11-20T04:50:53;20.00;45.90
7234;DHT22;3658;47.992;10.158;2022-11-20T04:53:21;20.00;45.90
7234;DHT22;3658;47.992;10.158;2022-11-20T04:55:48;20.00;45.90
7234;DHT22;3658;47.992;10.158;2022-11-20T04:58:16;20.00;45.90
7234;DHT22;3658;47.992;10.158;2022-11-20T05:00:43;19.90;45.80
7234;DHT22;3658;47.992;10.158;2022-11-20T05:03:10;19.90;45.80
7234;DHT22;3658;47.992;10.158;2022-11-20T05:05:37;19.90;45.80
7234;DHT22;3658;47.992;10.158;2022-11-20T05:08:04;19.90;45.80
7234;DHT22;3658;47.992;10.158;2022-11-20T05:10:31;19.90;45.80
7234;DHT22;3658;47.992;10.158;2022-11-20T05:12:58;19.90;45.80
7234;DHT22;3658;47.992;10.158;2022-11-20T05:15:27;20.00;45.90
7234;DHT22;3658;47.992;10.158;2022-11-20T05:17:54;19.90;45.80
7234;DHT22;3658;47.992;10.158;2022-11-20T05:20:21;19.90;45.80
7234;DHT22;3658;47.992;10.158;2022-11-20T05:22:48;19.90;45.80
7234;DHT22;3658;47.992;10.158;2022-11-20T05:25:15;19.90;45.80
7234;DHT22;3658;47.992;10.158;2022-11-20T05:27:42;19.90;45.80
7234;DHT22;3658;47.992;10.158;2022-11-20T05:30:10;19.90;45.80
7234;DHT22;3658;47.992;10.158;2022-11-20T05:32:38;20.00;46.50
7234;DHT22;3658;47.992;10.158;2022-11-20T05:35:06;19.90;45.80
7234;DHT22;3658;47.992;10.158;2022-11-20T05:37:33;19.90;45.80
7234;DHT22;3658;47.992;10.158;2022-11-20T05:40:00;19.90;45.80
7234;DHT22;3658;47.992;10.158;2022-11-20T05:42:30;19.90;45.80
7234;DHT22;3658;47.992;10.158;2022-11-20T05:44:57;19.90;45.80
7234;DHT22;3658;47.992;10.158;2022-11-20T05:47:24;19.90;45.80
7234;DHT22;3658;47.992;10.158;2022-11-20T05:49:53;19.90;45.80
7234;DHT22;3658;47.992;10.158;2022-11-20T05:52:20;19.90;45.80
7234;DHT22;3658;47.992;10.158;2022-11-20T05:54:47;19.90;45.80
7234;DHT22;3658;47.992;10.158;2022-11-20T05:57:14;19.90;45.80
7234;DHT22;3658;47.992;10.158;2022-11-20T05:59:41;19.90;45.80
7234;DHT22;3658;47.992;10.158;2022-11-20T06:02:08;19.90;45.80
7234;DHT22;3658;47.992;10.158;2022-11-20T06:04:35;19.90;45.80
7234;DHT22;3658;47.992;10.158;2022-11-20T06:07:04;19.90;45.80
7234;DHT22;3658;47.992;10.158;2022-11-20T06:09:32;19.90;45.80
7234;DHT22;3658;47.992;10.158;2022-11-20T06:11:59;19.90;45.80
7234;DHT22;3658;47.992;10.158;2022-11-20T06:14:26;19.90;45.80
7234;DHT22;3658;47.992;10.158;2022-11-20T06:16:52;19.90;45.80
7234;DHT22;3658;47.992;10.158;2022-11-20T06:19:19;19.90;45.80
7234;DHT22;3658;47.992;10.158;2022-11-20T06:21:47;19.80;45.70
7234;DHT22;3658;47.992;10.158;2022-11-20T06:24:16;19.80;45.70
7234;DHT22;3658;47.992;10.158;2022-11-20T06:26:43;19.80;45.70
7234;DHT22;3658;47.992;10.158;2022-11-20T06:29:10;19.80;45.70
7234;DHT22;3658;47.992;10.158;2022-11-20T06:31:37;19.80;45.70
7234;DHT22;3658;47.992;10.158;2022-11-20T06:34:05;19.80;45.70
7234;DHT22;3658;47.992;10.158;2022-11-20T06:36:32;19.80;45.80
7234;DHT22;3658;47.992;10.158;2022-11-20T06:38:59;19.80;45.70
7234;DHT22;3658;47.992;10.158;2022-11-20T06:41:27;19.80;45.70
7234;DHT22;3658;47.992;10.158;2022-11-20T06:43:54;19.80;45.80
7234;DHT22;3658;47.992;10.158;2022-11-20T06:46:21;19.80;45.70
7234;DHT22;3658;47.992;10.158;2022-11-20T06:48:49;19.80;45.70
7234;DHT22;3658;47.992;10.158;2022-11-20T06:51:17;19.80;45.70
7234;DHT22;3658;47.992;10.158;2022-11-20T06:53:44;19.80;45.70
7234;DHT22;3658;47.992;10.158;2022-11-20T06:56:11;19.80;45.80
7234;DHT22;3658;47.992;10.158;2022-11-20T06:58:39;19.80;45.90
7234;DHT22;3658;47.992;10.158;2022-11-20T07:01:08;19.90;46.00
7234;DHT22;3658;47.992;10.158;2022-11-20T07:03:36;19.90;46.10
7234;DHT22;3658;47.992;10.158;2022-11-20T07:06:04;19.90;46.30
7234;DHT22;3658;47.992;10.158;2022-11-20T07:08:32;19.90;46.40
7234;DHT22;3658;47.992;10.158;2022-11-20T07:11:00;20.00;46.60
7234;DHT22;3658;47.992;10.158;2022-11-20T07:13:29;20.10;46.70
7234;DHT22;3658;47.992;10.158;2022-11-20T07:16:01;20.10;46.70
7234;DHT22;3658;47.992;10.158;2022-11-20T07:18:29;20.10;46.70
7234;DHT22;3658;47.992;10.158;2022-11-20T07:20:59;20.20;46.90
7234;DHT22;3658;47.992;10.158;2022-11-20T07:23:26;20.20;46.90
7234;DHT22;3658;47.992;10.158;2022-11-20T07:25:53;20.20;47.00
7234;DHT22;3658;47.992;10.158;2022-11-20T07:28:20;20.20;47.10
7234;DHT22;3658;47.992;10.158;2022-11-20T07:30:50;20.20;47.20
7234;DHT22;3658;47.992;10.158;2022-11-20T07:33:18;20.20;47.20
7234;DHT22;3658;47.992;10.158;2022-11-20T07:35:46;20.20;47.20
7234;DHT22;3658;47.992;10.158;2022-11-20T07:38:13;20.20;47.20
7234;DHT22;3658;47.992;10.158;2022-11-20T07:40:40;20.20;47.30
7234;DHT22;3658;47.992;10.158;2022-11-20T07:43:06;20.20;47.30
7234;DHT22;3658;47.992;10.158;2022-11-20T07:45:33;20.30;47.50
7234;DHT22;3658;47.992;10.158;2022-11-20T07:48:01;20.30;47.50
7234;DHT22;3658;47.992;10.158;2022-11-20T07:50:29;20.30;47.50
7234;DHT22;3658;47.992;10.158;2022-11-20T07:53:06;20.30;47.50
7234;DHT22;3658;47.992;10.158;2022-11-20T07:55:33;20.30;47.50
7234;DHT22;3658;47.992;10.158;2022-11-20T07:58:00;20.30;47.50
7234;DHT22;3658;47.992;10.158;2022-11-20T08:00:27;20.30;47.50
7234;DHT22;3658;47.992;10.158;2022-11-20T08:02:54;20.30;47.50
7234;DHT22;3658;47.992;10.158;2022-11-20T08:05:21;20.30;47.50
7234;DHT22;3658;47.992;10.158;2022-11-20T08:07:57;20.30;47.50
7234;DHT22;3658;47.992;10.158;2022-11-20T08:10:25;20.40;47.60
7234;DHT22;3658;47.992;10.158;2022-11-20T08:12:53;20.40;47.60
7234;DHT22;3658;47.992;10.158;2022-11-20T08:15:38;20.40;47.60
7234;DHT22;3658;47.992;10.158;2022-11-20T08:18:07;20.40;47.50
7234;DHT22;3658;47.992;10.158;2022-11-20T08:20:35;20.40;47.50
7234;DHT22;3658;47.992;10.158;2022-11-20T08:23:04;20.40;47.50
7234;DHT22;3658;47.992;10.158;2022-11-20T08:25:33;20.40;47.50
7234;DHT22;3658;47.992;10.158;2022-11-20T08:28:01;20.40;47.60
7234;DHT22;3658;47.992;10.158;2022-11-20T08:30:29;20.40;47.50
7234;DHT22;3658;47.992;10.158;2022-11-20T08:33:01;20.40;47.50
7234;DHT22;3658;47.992;10.158;2022-11-20T08:35:29;20.40;47.50
7234;DHT22;3658;47.992;10.158;2022-11-20T08:37:59;20.50;47.60
7234;DHT22;3658;47.992;10.158;2022-11-20T08:40:27;20.50;47.60
7234;DHT22;3658;47.992;10.158;2022-11-20T08:42:54;20.50;47.60
7234;DHT22;3658;47.992;10.158;2022-11-20T08:45:21;20.50;47.60
7234;DHT22;3658;47.992;10.158;2022-11-20T08:47:49;20.50;47.60
7234;DHT22;3658;47.992;10.158;2022-11-20T08:50:16;20.50;47.60
7234;DHT22;3658;47.992;10.158;2022-11-20T08:52:44;20.50;47.60
7234;DHT22;3658;47.992;10.158;2022-11-20T08:55:11;20.50;47.30
7234;DHT22;3658;47.992;10.158;2022-11-20T08:57:40;20.30;43.60
7234;DHT22;3658;47.992;10.158;2022-11-20T09:00:08;20.20;44.60
7234;DHT22;3658;47.992;10.158;2022-11-20T09:02:35;20.10;44.10
7234;DHT22;3658;47.992;10.158;2022-11-20T09:05:02;20.00;43.00
7234;DHT22;3658;47.992;10.158;2022-11-20T09:07:29;19.90;42.00
7234;DHT22;3658;47.992;10.158;2022-11-20T09:09:57;19.90;41.00
7234;DHT22;3658;47.992;10.158;2022-11-20T09:12:24;19.90;40.70
7234;DHT22;3658;47.992;10.158;2022-11-20T09:14:52;20.00;40.90
7234;DHT22;3658;47.992;10.158;2022-11-20T09:17:19;20.10;41.20
7234;DHT22;3658;47.992;10.158;2022-11-20T09:19:47;20.20;41.50
7234;DHT22;3658;47.992;10.158;2022-11-20T09:22:14;20.30;41.90
7234;DHT22;3658;47.992;10.158;2022-11-20T09:24:41;20.30;42.10
7234;DHT22;3658;47.992;10.158;2022-11-20T09:27:08;20.30;42.30
7234;DHT22;3658;47.992;10.158;2022-11-20T09:29:35;20.40;42.60
7234;DHT22;3658;47.992;10.158;2022-11-20T09:32:04;20.40;42.80
7234;DHT22;3658;47.992;10.158;2022-11-20T09:34:31;20.40;43.00
7234;DHT22;3658;47.992;10.158;2022-11-20T09:36:58;20.40;43.20
7234;DHT22;3658;47.992;10.158;2022-11-20T09:39:25;20.40;43.30
7234;DHT22;3658;47.992;10.158;2022-11-20T09:42:05;20.50;43.50
7234;DHT22;3658;47.992;10.158;2022-11-20T09:44:53;20.50;43.60
7234;DHT22;3658;47.992;10.158;2022-11-20T09:47:35;20.50;44.00
7234;DHT22;3658;47.992;10.158;2022-11-20T09:50:19;20.50;44.20
7234;DHT22;3658;47.992;10.158;2022-11-20T09:52:58;20.50;44.30
7234;DHT22;3658;47.992;10.158;2022-11-20T09:55:28;20.50;44.60
7234;DHT22;3658;47.992;10.158;2022-11-20T09:57:56;20.60;44.70
7234;DHT22;3658;47.992;10.158;2022-11-20T10:00:24;20.60;44.80
7234;DHT22;3658;47.992;10.158;2022-11-20T10:02:58;20.60;44.80
7234;DHT22;3658;47.992;10.158;2022-11-20T10:05:30;20.60;44.80
7234;DHT22;3658;47.992;10.158;2022-11-20T10:08:07;20.60;45.10
7234;DHT22;3658;47.992;10.158;2022-11-20T10:10:42;20.60;45.30
7234;DHT22;3658;47.992;10.158;2022-11-20T10:13:19;20.60;45.40
7234;DHT22;3658;47.992;10.158;2022-11-20T10:15:57;20.60;45.30
7234;DHT22;3658;47.992;10.158;2022-11-20T10:18:39;20.60;45.40
7234;DHT22;3658;47.992;10.158;2022-11-20T10:21:13;20.60;45.50
7234;DHT22;3658;47.992;10.158;2022-11-20T10:23:53;20.60;45.60
7234;DHT22;3658;47.992;10.158;2022-11-20T10:26:29;20.60;45.70
7234;DHT22;3658;47.992;10.158;2022-11-20T10:29:11;20.60;45.70
7234;DHT22;3658;47.992;10.158;2022-11-20T10:31:40;20.70;46.00
7234;DHT22;3658;47.992;10.158;2022-11-20T10:34:19;20.70;46.00
7234;DHT22;3658;47.992;10.158;2022-11-20T10:36:50;20.60;45.90
7234;DHT22;3658;47.992;10.158;2022-11-20T10:39:25;20.60;45.80
7234;DHT22;3658;47.992;10.158;2022-11-20T10:41:53;20.70;45.90
7234;DHT22;3658;47.992;10.158;2022-11-20T10:44:22;20.70;45.80
7234;DHT22;3658;47.992;10.158;2022-11-20T10:47:04;20.70;46.00
7234;DHT22;3658;47.992;10.158;2022-11-20T10:49:33;20.70;46.10
7234;DHT22;3658;47.992;10.158;2022-11-20T10:52:09;20.70;46.10
7234;DHT22;3658;47.992;10.158;2022-11-20T10:54:43;20.70;46.20
7234;DHT22;3658;47.992;10.158;2022-11-20T10:57:25;20.70;46.10
7234;DHT22;3658;47.992;10.158;2022-11-20T11:00:03;20.70;46.20
7234;DHT22;3658;47.992;10.158;2022-11-20T11:02:39;20.70;46.20
7234;DHT22;3658;47.992;10.158;2022-11-20T11:05:23;20.70;46.20
7234;DHT22;3658;47.992;10.158;2022-11-20T11:07:54;20.70;46.10
7234;DHT22;3658;47.992;10.158;2022-11-20T11:10:25;20.70;46.30
7234;DHT22;3658;47.992;10.158;2022-11-20T11:12:54;20.70;46.10
7234;DHT22;3658;47.992;10.158;2022-11-20T11:15:27;20.60;45.60
7234;DHT22;3658;47.992;10.158;2022-11-20T11:17:54;20.60;45.30
7234;DHT22;3658;47.992;10.158;2022-11-20T11:20:23;20.60;45.10
7234;DHT22;3658;47.992;10.158;2022-11-20T11:22:52;20.60;44.90
7234;DHT22;3658;47.992;10.158;2022-11-20T11:25:28;20.50;44.60
7234;DHT22;3658;47.992;10.158;2022-11-20T11:27:57;20.60;44.50
7234;DHT22;3658;47.992;10.158;2022-11-20T11:30:25;20.50;44.30
7234;DHT22;3658;47.992;10.158;2022-11-20T11:33:04;20.50;44.10
7234;DHT22;3658;47.992;10.158;2022-11-20T11:35:33;20.50;44.00
7234;DHT22;3658;47.992;10.158;2022-11-20T11:38:13;20.50;44.10
7234;DHT22;3658;47.992;10.158;2022-11-20T11:40:42;20.50;44.50
7234;DHT22;3658;47.992;10.158;2022-11-20T11:43:17;20.50;44.70
7234;DHT22;3658;47.992;10.158;2022-11-20T11:46:00;20.60;44.80
7234;DHT22;3658;47.992;10.158;2022-11-20T11:48:27;20.60;45.00
7234;DHT22;3658;47.992;10.158;2022-11-20T11:50:55;20.60;45.10
7234;DHT22;3658;47.992;10.158;2022-11-20T11:53:24;20.60;45.20
7234;DHT22;3658;47.992;10.158;2022-11-20T11:55:56;20.60;45.90
7234;DHT22;3658;47.992;10.158;2022-11-20T11:58:43;20.50;45.20
7234;DHT22;3658;47.992;10.158;2022-11-20T12:01:21;20.50;45.30
7234;DHT22;3658;47.992;10.158;2022-11-20T12:03:58;20.50;45.30
7234;DHT22;3658;47.992;10.158;2022-11-20T12:06:30;20.50;45.30
7234;DHT22;3658;47.992;10.158;2022-11-20T12:09:01;20.50;45.30
7234;DHT22;3658;47.992;10.158;2022-11-20T12:11:33;20.50;45.30
7234;DHT22;3658;47.992;10.158;2022-11-20T12:14:09;20.50;45.30
7234;DHT22;3658;47.992;10.158;2022-11-20T12:16:40;20.50;45.40
7234;DHT22;3658;47.992;10.158;2022-11-20T12:19:10;20.50;45.40
7234;DHT22;3658;47.992;10.158;2022-11-20T12:21:48;20.50;45.40
7234;DHT22;3658;47.992;10.158;2022-11-20T12:24:50;20.50;45.40
7234;DHT22;3658;47.992;10.158;2022-11-20T12:27:47;20.50;45.40
7234;DHT22;3658;47.992;10.158;2022-11-20T12:30:19;20.50;45.50
7234;DHT22;3658;47.992;10.158;2022-11-20T12:33:08;20.50;45.50
7234;DHT22;3658;47.992;10.158;2022-11-20T12:35:54;20.50;45.50
7234;DHT22;3658;47.992;10.158;2022-11-20T12:38:51;20.50;45.50
7234;DHT22;3658;47.992;10.158;2022-11-20T12:41:33;20.50;45.50
7234;DHT22;3658;47.992;10.158;2022-11-20T12:44:35;20.50;45.50
7234;DHT22;3658;47.992;10.158;2022-11-20T12:47:26;20.50;45.50
7234;DHT22;3658;47.992;10.158;2022-11-20T12:50:03;20.50;45.50
7234;DHT22;3658;47.992;10.158;2022-11-20T12:52:41;20.50;45.50
7234;DHT22;3658;47.992;10.158;2022-11-20T12:55:35;20.50;45.50
7234;DHT22;3658;47.992;10.158;2022-11-20T12:58:10;20.50;45.50
7234;DHT22;3658;47.992;10.158;2022-11-20T13:00:47;20.50;45.50
7234;DHT22;3658;47.992;10.158;2022-11-20T13:03:32;20.50;45.50
7234;DHT22;3658;47.992;10.158;2022-11-20T13:06:09;20.50;45.50
7234;DHT22;3658;47.992;10.158;2022-11-20T13:08:40;20.50;45.50
7234;DHT22;3658;47.992;10.158;2022-11-20T13:11:14;20.50;45.60
7234;DHT22;3658;47.992;10.158;2022-11-20T13:14:04;20.50;45.60
7234;DHT22;3658;47.992;10.158;2022-11-20T13:16:40;20.50;45.70
7234;DHT22;3658;47.992;10.158;2022-11-20T13:19:12;20.50;45.70
7234;DHT22;3658;47.992;10.158;2022-11-20T13:21:41;20.50;45.80
7234;DHT22;3658;47.992;10.158;2022-11-20T13:24:22;20.50;45.80
7234;DHT22;3658;47.992;10.158;2022-11-20T13:27:02;20.50;45.80
7234;DHT22;3658;47.992;10.158;2022-11-20T13:29:29;20.50;45.90
7234;DHT22;3658;47.992;10.158;2022-11-20T13:32:04;20.60;47.20
7234;DHT22;3658;47.992;10.158;2022-11-20T13:34:32;20.60;46.80
7234;DHT22;3658;47.992;10.158;2022-11-20T13:37:00;20.60;46.90
7234;DHT22;3658;47.992;10.158;2022-11-20T13:39:30;20.70;47.00
7234;DHT22;3658;47.992;10.158;2022-11-20T13:42:00;20.70;47.00
7234;DHT22;3658;47.992;10.158;2022-11-20T13:44:33;20.70;47.00
7234;DHT22;3658;47.992;10.158;2022-11-20T13:47:01;20.70;46.90
7234;DHT22;3658;47.992;10.158;2022-11-20T13:49:31;20.70;46.60
7234;DHT22;3658;47.992;10.158;2022-11-20T13:52:08;20.70;46.60
7234;DHT22;3658;47.992;10.158;2022-11-20T13:54:58;20.70;46.80
7234;DHT22;3658;47.992;10.158;2022-11-20T14:00:22;20.70;46.80
7234;DHT22;3658;47.992;10.158;2022-11-20T14:02:59;20.70;46.90
7234;DHT22;3658;47.992;10.158;2022-11-20T14:05:28;20.70;46.90
7234;DHT22;3658;47.992;10.158;2022-11-20T14:07:57;20.70;46.90
7234;DHT22;3658;47.992;10.158;2022-11-20T14:10:26;20.70;46.90
7234;DHT22;3658;47.992;10.158;2022-11-20T14:12:55;20.70;47.00
7234;DHT22;3658;47.992;10.158;2022-11-20T14:15:27;20.70;47.10
7234;DHT22;3658;47.992;10.158;2022-11-20T14:17:54;20.70;47.10
7234;DHT22;3658;47.992;10.158;2022-11-20T14:20:24;20.70;47.10
7234;DHT22;3658;47.992;10.158;2022-11-20T14:22:53;20.70;47.10
7234;DHT22;3658;47.992;10.158;2022-11-20T14:25:22;20.70;47.20
7234;DHT22;3658;47.992;10.158;2022-11-20T14:27:55;20.70;47.10
7234;DHT22;3658;47.992;10.158;2022-11-20T14:30:24;20.60;47.20
7234;DHT22;3658;47.992;10.158;2022-11-20T14:32:53;20.60;47.10
7234;DHT22;3658;47.992;10.158;2022-11-20T14:35:24;20.60;46.80
7234;DHT22;3658;47.992;10.158;2022-11-20T14:37:51;20.50;46.00
7234;DHT22;3658;47.992;10.158;2022-11-20T14:40:24;20.40;45.10
7234;DHT22;3658;47.992;10.158;2022-11-20T14:42:52;20.40;44.40
7234;DHT22;3658;47.992;10.158;2022-11-20T14:45:20;20.30;43.80
7234;DHT22;3658;47.992;10.158;2022-11-20T14:47:48;20.30;43.20
7234;DHT22;3658;47.992;10.158;2022-11-20T14:50:19;20.30;43.20
7234;DHT22;3658;47.992;10.158;2022-11-20T14:52:54;20.30;42.90
7234;DHT22;3658;47.992;10.158;2022-11-20T14:55:29;20.30;42.20
7234;DHT22;3658;47.992;10.158;2022-11-20T14:57:59;20.30;41.90
7234;DHT22;3658;47.992;10.158;2022-11-20T15:00:28;20.30;41.60
7234;DHT22;3658;47.992;10.158;2022-11-20T15:02:55;20.30;41.20
7234;DHT22;3658;47.992;10.158;2022-11-20T15:05:24;20.30;40.70
7234;DHT22;3658;47.992;10.158;2022-11-20T15:08:04;20.30;40.30
7234;DHT22;3658;47.992;10.158;2022-11-20T15:10:31;20.30;40.20
7234;DHT22;3658;47.992;10.158;2022-11-20T15:13:01;20.40;40.70
7234;DHT22;3658;47.992;10.158;2022-11-20T15:15:32;20.50;41.10
7234;DHT22;3658;47.992;10.158;2022-11-20T15:18:01;20.50;41.50
7234;DHT22;3658;47.992;10.158;2022-11-20T15:20:31;20.50;41.80
7234;DHT22;3658;47.992;10.158;2022-11-20T15:22:58;20.50;42.10
7234;DHT22;3658;47.992;10.158;2022-11-20T15:25:25;20.60;42.40
7234;DHT22;3658;47.992;10.158;2022-11-20T15:27:55;20.60;42.60
7234;DHT22;3658;47.992;10.158;2022-11-20T15:30:23;20.60;42.80
7234;DHT22;3658;47.992;10.158;2022-11-20T15:32:52;20.60;42.90
7234;DHT22;3658;47.992;10.158;2022-11-20T15:35:19;20.70;44.00
7234;DHT22;3658;47.992;10.158;2022-11-20T15:37:46;20.60;43.20
7234;DHT22;3658;47.992;10.158;2022-11-20T15:40:13;20.60;43.50
7234;DHT22;3658;47.992;10.158;2022-11-20T15:42:40;20.60;43.60
7234;DHT22;3658;47.992;10.158;2022-11-20T15:45:29;20.60;43.70
7234;DHT22;3658;47.992;10.158;2022-11-20T15:47:58;20.70;44.20
7234;DHT22;3658;47.992;10.158;2022-11-20T15:50:29;20.70;44.20
7234;DHT22;3658;47.992;10.158;2022-11-20T15:52:56;20.70;44.30
7234;DHT22;3658;47.992;10.158;2022-11-20T15:55:23;20.70;44.60
7234;DHT22;3658;47.992;10.158;2022-11-20T15:57:50;20.60;44.50
7234;DHT22;3658;47.992;10.158;2022-11-20T16:00:18;20.70;44.60
7234;DHT22;3658;47.992;10.158;2022-11-20T16:02:45;20.70;44.60
7234;DHT22;3658;47.992;10.158;2022-11-20T16:05:15;20.60;44.50
7234;DHT22;3658;47.992;10.158;2022-11-20T16:07:43;20.60;44.60